sensor_id;sensor_type;location;lat;lon;timestamp;pressure;altitude;pressure_sealevel;temperature;humidity
31483;BME280;18103;52.246;8.052;2022-09-30T00:00:52;99349.53;;;9.40;92.44
31483;BME280;18103;52.246;8.052;2022-09-30T00:03:20;99353.28;;;9.46;92.10
31483;BME280;18103;52.246;8.052;2022-09-30T00:05:46;99351.19;;;9.41;92.52
31483;BME280;18103;52.246;8.052;2022-09-30T00:08:12;99348.63;;;9.33;92.60
31483;BME280;18103;52.246;8.052;2022-09-30T00:10:37;99355.78;;;9.33;93.47
31483;BME280;18103;52.246;8.052;2022-09-30T00:13:06;99352.81;;;9.28;92.98
31483;BME280;18103;52.246;8.052;2022-09-30T00:15:31;99366.94;;;9.28;93.35
31483;BME280;18103;52.246;8.052;2022-09-30T00:17:56;99358.63;;;9.31;92.63
31483;BME280;18103;52.246;8.052;2022-09-30T00:20:23;99364.94;;;9.30;92.63
31483;BME280;18103;52.246;8.052;2022-09-30T00:22:48;99371.91;;;9.31;92.68
31483;BME280;18103;52.246;8.052;2022-09-30T00:25:14;99366.22;;;9.34;93.01
31483;BME280;18103;52.246;8.052;2022-09-30T00:27:43;99365.03;;;9.37;92.96
31483;BME280;18103;52.246;8.052;2022-09-30T00:30:11;99358.63;;;9.31;92.94
31483;BME280;18103;52.246;8.052;2022-09-30T00:32:36;99364.28;;;9.28;92.79
31483;BME280;18103;52.246;8.052;2022-09-30T00:35:02;99370.25;;;9.30;93.46
31483;BME280;18103;52.246;8.052;2022-09-30T00:37:27;99371.09;;;9.31;93.45
31483;BME280;18103;52.246;8.052;2022-09-30T00:39:56;99368.50;;;9.37;92.95
31483;BME280;18103;52.246;8.052;2022-09-30T00:42:21;99365.50;;;9.40;92.14
31483;BME280;18103;52.246;8.052;2022-09-30T00:45:09;99362.66;;;9.42;92.26
31483;BME280;18103;52.246;8.052;2022-09-30T00:48:00;99365.75;;;9.45;91.87
31483;BME280;18103;52.246;8.052;2022-09-30T00:50:46;99367.25;;;9.48;92.15
31483;BME280;18103;52.246;8.052;2022-09-30T00:53:33;99373.75;;;9.45;91.85
31483;BME280;18103;52.246;8.052;2022-09-30T00:58:35;99377.06;;;9.48;91.88
31483;BME280;18103;52.246;8.052;2022-09-30T01:01:02;99378.25;;;9.45;91.82
31483;BME280;18103;52.246;8.052;2022-09-30T01:03:30;99378.88;;;9.47;91.75
31483;BME280;18103;52.246;8.052;2022-09-30T01:05:56;99383.56;;;9.45;91.53
31483;BME280;18103;52.246;8.052;2022-09-30T01:08:21;99374.94;;;9.43;91.45
31483;BME280;18103;52.246;8.052;2022-09-30T01:10:47;99376.16;;;9.40;91.96
31483;BME280;18103;52.246;8.052;2022-09-30T01:13:14;99379.44;;;9.42;91.37
31483;BME280;18103;52.246;8.052;2022-09-30T01:18:27;99378.16;;;9.38;91.16
31483;BME280;18103;52.246;8.052;2022-09-30T01:21:10;99378.97;;;9.39;91.30
31483;BME280;18103;52.246;8.052;2022-09-30T01:24:00;99378.50;;;9.35;91.65
31483;BME280;18103;52.246;8.052;2022-09-30T01:29:52;99390.81;;;9.36;90.92
31483;BME280;18103;52.246;8.052;2022-09-30T01:32:58;99389.16;;;9.35;91.50
31483;BME280;18103;52.246;8.052;2022-09-30T01:35:45;99386.13;;;9.24;91.89
31483;BME280;18103;52.246;8.052;2022-09-30T01:38:27;99389.47;;;9.18;91.94
31483;BME280;18103;52.246;8.052;2022-09-30T01:41:07;99387.22;;;9.15;92.24
31483;BME280;18103;52.246;8.052;2022-09-30T01:48:59;99390.13;;;9.05;92.14
31483;BME280;18103;52.246;8.052;2022-09-30T01:51:55;99399.28;;;9.02;92.36
31483;BME280;18103;52.246;8.052;2022-09-30T01:57:46;99400.00;;;8.96;92.37
31483;BME280;18103;52.246;8.052;2022-09-30T02:00:06;99404.47;;;8.96;92.75
31483;BME280;18103;52.246;8.052;2022-09-30T02:02:35;99410.16;;;8.93;92.42
31483;BME280;18103;52.246;8.052;2022-09-30T02:05:13;99396.19;;;8.91;92.50
31483;BME280;18103;52.246;8.052;2022-09-30T02:07:46;99400.22;;;8.87;92.86
31483;BME280;18103;52.246;8.052;2022-09-30T02:10:21;99399.06;;;8.89;93.21
31483;BME280;18103;52.246;8.052;2022-09-30T02:12:53;99407.56;;;8.85;93.27
31483;BME280;18103;52.246;8.052;2022-09-30T02:15:21;99402.13;;;8.78;93.55
31483;BME280;18103;52.246;8.052;2022-09-30T02:17:57;99402.97;;;8.79;93.32
31483;BME280;18103;52.246;8.052;2022-09-30T02:20:30;99404.63;;;8.80;93.82
31483;BME280;18103;52.246;8.052;2022-09-30T02:23:16;99406.28;;;8.81;93.90
31483;BME280;18103;52.246;8.052;2022-09-30T02:25:48;99401.59;;;8.83;94.04
31483;BME280;18103;52.246;8.052;2022-09-30T02:28:21;99409.56;;;8.83;93.22
31483;BME280;18103;52.246;8.052;2022-09-30T02:30:50;99411.59;;;8.81;93.35
31483;BME280;18103;52.246;8.052;2022-09-30T02:33:45;99412.28;;;8.75;93.69
31483;BME280;18103;52.246;8.052;2022-09-30T02:36:33;99415.59;;;8.77;93.58
31483;BME280;18103;52.246;8.052;2022-09-30T02:39:07;99425.28;;;8.69;93.93
31483;BME280;18103;52.246;8.052;2022-09-30T02:41:49;99429.88;;;8.76;94.08
31483;BME280;18103;52.246;8.052;2022-09-30T02:44:17;99429.22;;;8.74;93.93
31483;BME280;18103;52.246;8.052;2022-09-30T02:46:55;99429.75;;;8.69;94.18
31483;BME280;18103;52.246;8.052;2022-09-30T02:49:35;99432.25;;;8.70;93.86
31483;BME280;18103;52.246;8.052;2022-09-30T02:52:23;99420.44;;;8.73;93.80
31483;BME280;18103;52.246;8.052;2022-09-30T02:55:18;99422.72;;;8.76;93.78
31483;BME280;18103;52.246;8.052;2022-09-30T02:58:10;99422.91;;;8.75;94.12
31483;BME280;18103;52.246;8.052;2022-09-30T03:00:38;99425.63;;;8.66;93.92
31483;BME280;18103;52.246;8.052;2022-09-30T03:03:18;99425.63;;;8.66;94.53
31483;BME280;18103;52.246;8.052;2022-09-30T03:05:45;99431.31;;;8.63;94.69
31483;BME280;18103;52.246;8.052;2022-09-30T03:08:15;99419.19;;;8.61;94.33
31483;BME280;18103;52.246;8.052;2022-09-30T03:10:42;99428.81;;;8.62;94.04
31483;BME280;18103;52.246;8.052;2022-09-30T03:13:36;99426.00;;;8.63;94.58
31483;BME280;18103;52.246;8.052;2022-09-30T03:19:40;99427.69;;;8.56;95.12
31483;BME280;18103;52.246;8.052;2022-09-30T03:28:14;99430.16;;;8.58;94.37
31483;BME280;18103;52.246;8.052;2022-09-30T03:36:18;99436.13;;;8.60;94.97
31483;BME280;18103;52.246;8.052;2022-09-30T03:44:14;99441.50;;;8.75;93.48
31483;BME280;18103;52.246;8.052;2022-09-30T03:46:47;99436.84;;;8.77;93.46
31483;BME280;18103;52.246;8.052;2022-09-30T03:49:19;99445.13;;;8.82;93.14
31483;BME280;18103;52.246;8.052;2022-09-30T03:51:49;99446.16;;;8.81;93.20
31483;BME280;18103;52.246;8.052;2022-09-30T03:54:14;99443.47;;;8.81;93.26
31483;BME280;18103;52.246;8.052;2022-09-30T03:56:40;99452.81;;;8.77;92.93
31483;BME280;18103;52.246;8.052;2022-09-30T03:59:12;99444.16;;;8.75;93.18
31483;BME280;18103;52.246;8.052;2022-09-30T04:01:41;99449.16;;;8.78;93.02
31483;BME280;18103;52.246;8.052;2022-09-30T04:04:07;99457.16;;;8.69;92.99
31483;BME280;18103;52.246;8.052;2022-09-30T04:06:32;99460.00;;;8.68;93.02
31483;BME280;18103;52.246;8.052;2022-09-30T04:08:58;99468.09;;;8.75;93.36
31483;BME280;18103;52.246;8.052;2022-09-30T04:11:29;99468.28;;;8.73;93.00
31483;BME280;18103;52.246;8.052;2022-09-30T04:13:57;99481.03;;;8.78;92.60
31483;BME280;18103;52.246;8.052;2022-09-30T04:16:25;99476.38;;;8.80;92.21
31483;BME280;18103;52.246;8.052;2022-09-30T04:18:50;99483.41;;;8.73;92.52
31483;BME280;18103;52.246;8.052;2022-09-30T04:21:16;99483.41;;;8.73;92.58
31483;BME280;18103;52.246;8.052;2022-09-30T04:23:45;99488.22;;;8.69;92.42
31483;BME280;18103;52.246;8.052;2022-09-30T04:26:12;99486.44;;;8.61;92.74
31483;BME280;18103;52.246;8.052;2022-09-30T04:28:38;99485.97;;;8.58;93.40
31483;BME280;18103;52.246;8.052;2022-09-30T04:31:05;99489.50;;;8.50;93.55
31483;BME280;18103;52.246;8.052;2022-09-30T04:33:33;99480.72;;;8.42;93.58
31483;BME280;18103;52.246;8.052;2022-09-30T04:36:01;99485.91;;;8.35;93.67
31483;BME280;18103;52.246;8.052;2022-09-30T04:38:27;99488.75;;;8.33;93.51
31483;BME280;18103;52.246;8.052;2022-09-30T04:40:53;99480.28;;;8.38;93.60
31483;BME280;18103;52.246;8.052;2022-09-30T04:43:20;99488.75;;;8.33;93.17
31483;BME280;18103;52.246;8.052;2022-09-30T04:45:48;99484.59;;;8.31;93.01
31483;BME280;18103;52.246;8.052;2022-09-30T04:48:17;99497.38;;;8.36;92.95
31483;BME280;18103;52.246;8.052;2022-09-30T04:50:42;99496.53;;;8.35;92.46
31483;BME280;18103;52.246;8.052;2022-09-30T04:53:11;99502.03;;;8.25;92.74
31483;BME280;18103;52.246;8.052;2022-09-30T04:55:36;99507.38;;;8.17;93.23
31483;BME280;18103;52.246;8.052;2022-09-30T04:58:02;99503.38;;;8.13;93.18
31483;BME280;18103;52.246;8.052;2022-09-30T05:00:28;99509.19;;;8.17;93.29
31483;BME280;18103;52.246;8.052;2022-09-30T05:02:54;99518.16;;;8.16;93.38
31483;BME280;18103;52.246;8.052;2022-09-30T05:05:19;99520.66;;;8.09;93.50
31483;BME280;18103;52.246;8.052;2022-09-30T05:07:44;99524.31;;;8.08;92.92
31483;BME280;18103;52.246;8.052;2022-09-30T05:10:10;99528.16;;;7.97;93.32
31483;BME280;18103;52.246;8.052;2022-09-30T05:12:37;99525.50;;;7.97;93.17
31483;BME280;18103;52.246;8.052;2022-09-30T05:15:06;99523.69;;;7.90;93.18
31483;BME280;18103;52.246;8.052;2022-09-30T05:17:32;99524.53;;;7.90;93.45
31483;BME280;18103;52.246;8.052;2022-09-30T05:19:58;99532.47;;;7.99;93.46
31483;BME280;18103;52.246;8.052;2022-09-30T05:22:25;99530.34;;;7.94;93.26
31483;BME280;18103;52.246;8.052;2022-09-30T05:24:51;99524.53;;;7.90;93.60
31483;BME280;18103;52.246;8.052;2022-09-30T05:27:18;99526.22;;;7.83;93.51
31483;BME280;18103;52.246;8.052;2022-09-30T05:29:43;99527.19;;;7.82;93.52
31483;BME280;18103;52.246;8.052;2022-09-30T05:32:09;99530.84;;;7.81;93.88
31483;BME280;18103;52.246;8.052;2022-09-30T05:34:35;99529.03;;;7.74;94.09
31483;BME280;18103;52.246;8.052;2022-09-30T05:37:02;99524.56;;;7.74;94.14
31483;BME280;18103;52.246;8.052;2022-09-30T05:39:28;99531.22;;;7.78;94.11
31483;BME280;18103;52.246;8.052;2022-09-30T05:41:55;99529.72;;;7.76;93.79
31483;BME280;18103;52.246;8.052;2022-09-30T05:44:21;99520.91;;;7.75;94.04
31483;BME280;18103;52.246;8.052;2022-09-30T05:46:46;99529.88;;;7.74;94.28
31483;BME280;18103;52.246;8.052;2022-09-30T05:49:12;99534.84;;;7.77;94.32
31483;BME280;18103;52.246;8.052;2022-09-30T05:51:40;99540.78;;;7.79;93.71
31483;BME280;18103;52.246;8.052;2022-09-30T05:54:06;99542.44;;;7.88;93.68
31483;BME280;18103;52.246;8.052;2022-09-30T05:56:31;99542.44;;;7.88;93.45
31483;BME280;18103;52.246;8.052;2022-09-30T05:58:58;99541.81;;;7.78;93.69
31483;BME280;18103;52.246;8.052;2022-09-30T06:01:27;99555.06;;;7.86;94.14
31483;BME280;18103;52.246;8.052;2022-09-30T06:03:52;99562.00;;;7.87;94.18
31483;BME280;18103;52.246;8.052;2022-09-30T06:06:17;99556.72;;;7.87;94.71
31483;BME280;18103;52.246;8.052;2022-09-30T06:08:49;99563.66;;;7.96;94.80
31483;BME280;18103;52.246;8.052;2022-09-30T06:11:21;99565.97;;;8.00;94.90
31483;BME280;18103;52.246;8.052;2022-09-30T06:13:49;99565.66;;;8.03;94.71
31483;BME280;18103;52.246;8.052;2022-09-30T06:16:18;99575.91;;;8.06;94.45
31483;BME280;18103;52.246;8.052;2022-09-30T06:18:44;99573.25;;;8.14;94.01
31483;BME280;18103;52.246;8.052;2022-09-30T06:21:11;99570.94;;;8.19;93.84
31483;BME280;18103;52.246;8.052;2022-09-30T06:23:37;99574.38;;;8.27;93.61
31483;BME280;18103;52.246;8.052;2022-09-30T06:26:05;99572.72;;;8.43;93.05
31483;BME280;18103;52.246;8.052;2022-09-30T06:28:30;99566.91;;;8.47;93.48
31483;BME280;18103;52.246;8.052;2022-09-30T06:31:02;99575.44;;;8.65;92.86
31483;BME280;18103;52.246;8.052;2022-09-30T06:33:28;99584.03;;;8.76;92.51
31483;BME280;18103;52.246;8.052;2022-09-30T06:35:53;99587.13;;;8.87;92.37
31483;BME280;18103;52.246;8.052;2022-09-30T06:38:19;99591.28;;;8.90;91.70
31483;BME280;18103;52.246;8.052;2022-09-30T06:40:46;99582.91;;;9.01;92.01
31483;BME280;18103;52.246;8.052;2022-09-30T06:43:18;99591.16;;;9.14;91.90
31483;BME280;18103;52.246;8.052;2022-09-30T06:45:45;99595.47;;;9.38;91.21
31483;BME280;18103;52.246;8.052;2022-09-30T06:48:10;99604.22;;;9.46;90.67
31483;BME280;18103;52.246;8.052;2022-09-30T06:50:36;99595.97;;;9.41;91.68
31483;BME280;18103;52.246;8.052;2022-09-30T06:53:05;99590.84;;;9.55;90.59
31483;BME280;18103;52.246;8.052;2022-09-30T06:55:31;99599.72;;;9.70;91.32
31483;BME280;18103;52.246;8.052;2022-09-30T06:57:57;99587.28;;;9.85;91.05
31483;BME280;18103;52.246;8.052;2022-09-30T07:00:23;99595.56;;;9.90;90.71
31483;BME280;18103;52.246;8.052;2022-09-30T07:02:49;99588.41;;;10.05;90.88
31483;BME280;18103;52.246;8.052;2022-09-30T07:05:15;99585.81;;;10.20;89.81
31483;BME280;18103;52.246;8.052;2022-09-30T07:07:42;99593.16;;;10.18;90.46
31483;BME280;18103;52.246;8.052;2022-09-30T07:10:08;99597.84;;;10.31;90.25
31483;BME280;18103;52.246;8.052;2022-09-30T07:12:33;99599.44;;;10.54;89.32
31483;BME280;18103;52.246;8.052;2022-09-30T07:14:59;99599.44;;;10.54;88.58
31483;BME280;18103;52.246;8.052;2022-09-30T07:17:25;99594.06;;;10.84;87.05
31483;BME280;18103;52.246;8.052;2022-09-30T07:19:51;99595.50;;;11.01;86.07
31483;BME280;18103;52.246;8.052;2022-09-30T07:22:17;99603.47;;;11.16;85.63
31483;BME280;18103;52.246;8.052;2022-09-30T07:24:53;99604.00;;;11.26;86.98
31483;BME280;18103;52.246;8.052;2022-09-30T07:27:18;99606.41;;;11.42;87.20
31483;BME280;18103;52.246;8.052;2022-09-30T07:29:50;99613.94;;;11.53;85.72
31483;BME280;18103;52.246;8.052;2022-09-30T07:32:15;99608.47;;;11.61;85.24
31483;BME280;18103;52.246;8.052;2022-09-30T07:34:42;99613.81;;;11.61;84.57
31483;BME280;18103;52.246;8.052;2022-09-30T07:37:09;99612.13;;;11.75;84.50
31483;BME280;18103;52.246;8.052;2022-09-30T07:39:36;99616.09;;;11.86;83.24
31483;BME280;18103;52.246;8.052;2022-09-30T07:42:01;99618.63;;;11.94;82.18
31483;BME280;18103;52.246;8.052;2022-09-30T07:44:28;99615.78;;;11.74;80.55
31483;BME280;18103;52.246;8.052;2022-09-30T07:46:54;99620.56;;;11.79;80.48
31483;BME280;18103;52.246;8.052;2022-09-30T07:49:20;99633.66;;;11.73;80.54
31483;BME280;18103;52.246;8.052;2022-09-30T07:51:51;99633.47;;;11.96;79.98
31483;BME280;18103;52.246;8.052;2022-09-30T07:54:19;99645.72;;;12.12;79.74
31483;BME280;18103;52.246;8.052;2022-09-30T07:56:46;99633.13;;;12.06;79.71
31483;BME280;18103;52.246;8.052;2022-09-30T07:59:15;99639.22;;;12.21;78.35
31483;BME280;18103;52.246;8.052;2022-09-30T08:01:41;99629.44;;;12.07;79.01
31483;BME280;18103;52.246;8.052;2022-09-30T08:04:08;99631.97;;;12.15;78.26
31483;BME280;18103;52.246;8.052;2022-09-30T08:06:38;99633.13;;;12.27;77.25
31483;BME280;18103;52.246;8.052;2022-09-30T08:09:05;99640.34;;;12.33;77.78
31483;BME280;18103;52.246;8.052;2022-09-30T08:11:35;99640.88;;;12.50;77.56
31483;BME280;18103;52.246;8.052;2022-09-30T08:14:01;99636.41;;;12.64;77.69
31483;BME280;18103;52.246;8.052;2022-09-30T08:16:27;99644.75;;;12.82;79.03
31483;BME280;18103;52.246;8.052;2022-09-30T08:18:58;99647.09;;;12.98;78.61
31483;BME280;18103;52.246;8.052;2022-09-30T08:21:24;99650.97;;;12.89;79.37
31483;BME280;18103;52.246;8.052;2022-09-30T08:23:50;99651.88;;;13.03;77.93
31483;BME280;18103;52.246;8.052;2022-09-30T08:26:15;99650.22;;;13.08;78.20
31483;BME280;18103;52.246;8.052;2022-09-30T08:28:42;99650.28;;;13.15;77.64
31483;BME280;18103;52.246;8.052;2022-09-30T08:31:14;99649.03;;;13.11;76.93
31483;BME280;18103;52.246;8.052;2022-09-30T08:33:40;99652.84;;;13.36;76.12
31483;BME280;18103;52.246;8.052;2022-09-30T08:36:11;99652.88;;;13.49;75.35
31483;BME280;18103;52.246;8.052;2022-09-30T08:38:37;99650.81;;;13.51;73.99
31483;BME280;18103;52.246;8.052;2022-09-30T08:44:04;99658.72;;;13.66;74.30
31483;BME280;18103;52.246;8.052;2022-09-30T08:46:58;99653.78;;;13.89;74.18
31483;BME280;18103;52.246;8.052;2022-09-30T08:49:46;99662.66;;;14.03;73.38
31483;BME280;18103;52.246;8.052;2022-09-30T08:52:19;99663.69;;;13.95;72.17
31483;BME280;18103;52.246;8.052;2022-09-30T08:54:49;99664.31;;;14.11;72.48
31483;BME280;18103;52.246;8.052;2022-09-30T08:57:17;99668.25;;;14.15;72.08
31483;BME280;18103;52.246;8.052;2022-09-30T08:59:47;99665.34;;;14.23;73.80
31483;BME280;18103;52.246;8.052;2022-09-30T09:04:42;99666.19;;;14.17;74.68
31483;BME280;18103;52.246;8.052;2022-09-30T09:15:49;99676.47;;;14.20;73.63
31483;BME280;18103;52.246;8.052;2022-09-30T09:21:36;99677.94;;;14.22;73.19
31483;BME280;18103;52.246;8.052;2022-09-30T09:24:04;99677.78;;;14.44;72.57
31483;BME280;18103;52.246;8.052;2022-09-30T09:26:36;99675.03;;;14.11;72.31
31483;BME280;18103;52.246;8.052;2022-09-30T09:29:10;99675.25;;;14.29;70.99
31483;BME280;18103;52.246;8.052;2022-09-30T09:31:43;99671.13;;;14.20;69.95
31483;BME280;18103;52.246;8.052;2022-09-30T09:34:11;99670.31;;;14.39;69.87
31483;BME280;18103;52.246;8.052;2022-09-30T09:37:02;99672.78;;;14.47;68.92
31483;BME280;18103;52.246;8.052;2022-09-30T09:39:56;99677.72;;;14.37;68.87
31483;BME280;18103;52.246;8.052;2022-09-30T09:42:35;99671.97;;;14.60;70.04
31483;BME280;18103;52.246;8.052;2022-09-30T09:47:52;99681.22;;;14.70;68.93
31483;BME280;18103;52.246;8.052;2022-09-30T09:50:27;99690.94;;;14.65;71.04
31483;BME280;18103;52.246;8.052;2022-09-30T09:55:22;99688.88;;;14.47;71.95
31483;BME280;18103;52.246;8.052;2022-09-30T09:58:03;99690.94;;;14.65;71.50
31483;BME280;18103;52.246;8.052;2022-09-30T10:00:29;99687.66;;;14.56;71.68
31483;BME280;18103;52.246;8.052;2022-09-30T10:03:14;99696.28;;;14.71;70.54
31483;BME280;18103;52.246;8.052;2022-09-30T10:05:44;99685.53;;;14.91;69.97
31483;BME280;18103;52.246;8.052;2022-09-30T10:08:22;99677.09;;;14.75;70.66
31483;BME280;18103;52.246;8.052;2022-09-30T10:10:48;99682.25;;;14.76;71.02
31483;BME280;18103;52.246;8.052;2022-09-30T10:13:16;99690.88;;;14.98;69.11
31483;BME280;18103;52.246;8.052;2022-09-30T10:15:42;99685.25;;;15.06;68.00
31483;BME280;18103;52.246;8.052;2022-09-30T10:18:16;99687.69;;;15.27;67.79
31483;BME280;18103;52.246;8.052;2022-09-30T10:20:49;99682.75;;;15.18;69.18
31483;BME280;18103;52.246;8.052;2022-09-30T10:23:19;99676.78;;;15.09;70.76
31483;BME280;18103;52.246;8.052;2022-09-30T10:28:54;99682.44;;;15.45;69.81
31483;BME280;18103;52.246;8.052;2022-09-30T10:31:29;99685.38;;;15.37;69.48
31483;BME280;18103;52.246;8.052;2022-09-30T10:34:26;99678.25;;;15.63;66.61
31483;BME280;18103;52.246;8.052;2022-09-30T10:36:54;99684.00;;;15.66;68.17
31483;BME280;18103;52.246;8.052;2022-09-30T10:39:33;99682.84;;;15.87;67.23
31483;BME280;18103;52.246;8.052;2022-09-30T10:42:10;99680.84;;;15.76;67.77
31483;BME280;18103;52.246;8.052;2022-09-30T10:44:45;99676.75;;;16.05;69.02
31483;BME280;18103;52.246;8.052;2022-09-30T10:47:18;99681.63;;;16.14;66.52
31483;BME280;18103;52.246;8.052;2022-09-30T10:49:49;99674.94;;;15.92;67.38
31483;BME280;18103;52.246;8.052;2022-09-30T10:52:18;99673.25;;;15.66;67.27
31483;BME280;18103;52.246;8.052;2022-09-30T10:54:56;99677.75;;;15.79;64.37
31483;BME280;18103;52.246;8.052;2022-09-30T10:57:24;99669.00;;;15.83;65.90
31483;BME280;18103;52.246;8.052;2022-09-30T11:00:05;99671.84;;;15.95;64.76
31483;BME280;18103;52.246;8.052;2022-09-30T11:02:42;99668.28;;;16.01;63.81
31483;BME280;18103;52.246;8.052;2022-09-30T11:05:17;99672.25;;;15.92;64.54
31483;BME280;18103;52.246;8.052;2022-09-30T11:07:46;99664.53;;;16.02;64.68
31483;BME280;18103;52.246;8.052;2022-09-30T11:13:22;99664.72;;;16.32;64.80
31483;BME280;18103;52.246;8.052;2022-09-30T11:18:40;99669.63;;;16.17;62.77
31483;BME280;18103;52.246;8.052;2022-09-30T11:21:45;99682.06;;;16.61;63.95
31483;BME280;18103;52.246;8.052;2022-09-30T11:46:00;99673.28;;;16.72;61.36
31483;BME280;18103;52.246;8.052;2022-09-30T11:51:54;99678.78;;;16.59;62.52
31483;BME280;18103;52.246;8.052;2022-09-30T12:02:33;99679.81;;;16.83;59.13
31483;BME280;18103;52.246;8.052;2022-09-30T12:05:26;99675.06;;;16.78;58.85
31483;BME280;18103;52.246;8.052;2022-09-30T12:08:13;99665.38;;;16.77;58.34
31483;BME280;18103;52.246;8.052;2022-09-30T12:10:52;99670.91;;;17.01;59.22
31483;BME280;18103;52.246;8.052;2022-09-30T12:13:28;99674.34;;;17.26;58.75
31483;BME280;18103;52.246;8.052;2022-09-30T12:15:56;99675.69;;;17.17;58.28
31483;BME280;18103;52.246;8.052;2022-09-30T12:18:37;99685.50;;;17.29;58.90
31483;BME280;18103;52.246;8.052;2022-09-30T12:21:27;99670.41;;;17.10;59.29
31483;BME280;18103;52.246;8.052;2022-09-30T12:26:22;99666.56;;;17.00;58.51
31483;BME280;18103;52.246;8.052;2022-09-30T12:28:56;99659.97;;;17.14;59.94
31483;BME280;18103;52.246;8.052;2022-09-30T12:34:50;99649.19;;;17.14;59.24
31483;BME280;18103;52.246;8.052;2022-09-30T12:40:34;99644.84;;;17.31;60.81
31483;BME280;18103;52.246;8.052;2022-09-30T12:48:46;99627.38;;;17.04;58.01
31483;BME280;18103;52.246;8.052;2022-09-30T12:53:55;99624.50;;;17.17;56.62
31483;BME280;18103;52.246;8.052;2022-09-30T12:56:25;99627.22;;;17.17;57.26
31483;BME280;18103;52.246;8.052;2022-09-30T12:58:52;99627.59;;;17.50;57.93
31483;BME280;18103;52.246;8.052;2022-09-30T13:01:23;99626.19;;;17.78;58.02
31483;BME280;18103;52.246;8.052;2022-09-30T13:11:46;99618.25;;;17.94;57.00
31483;BME280;18103;52.246;8.052;2022-09-30T13:19:39;99614.63;;;18.12;56.97
31483;BME280;18103;52.246;8.052;2022-09-30T13:27:53;99609.03;;;17.42;56.06
31483;BME280;18103;52.246;8.052;2022-09-30T13:30:34;99601.56;;;17.44;56.61
31483;BME280;18103;52.246;8.052;2022-09-30T13:40:54;99585.75;;;17.18;54.86
31483;BME280;18103;52.246;8.052;2022-09-30T13:43:42;99588.22;;;17.19;55.81
31483;BME280;18103;52.246;8.052;2022-09-30T13:46:21;99595.16;;;17.27;56.79
31483;BME280;18103;52.246;8.052;2022-09-30T13:48:50;99593.06;;;17.29;57.46
31483;BME280;18103;52.246;8.052;2022-09-30T13:51:19;99589.69;;;17.04;55.88
31483;BME280;18103;52.246;8.052;2022-09-30T13:53:51;99584.72;;;17.01;55.16
31483;BME280;18103;52.246;8.052;2022-09-30T13:56:18;99582.69;;;16.96;54.12
31483;BME280;18103;52.246;8.052;2022-09-30T14:02:37;99580.00;;;16.96;56.30
31483;BME280;18103;52.246;8.052;2022-09-30T14:10:19;99590.75;;;17.14;56.42
31483;BME280;18103;52.246;8.052;2022-09-30T14:21:05;99572.53;;;16.80;55.61
31483;BME280;18103;52.246;8.052;2022-09-30T14:23:35;99586.63;;;16.82;56.09
31483;BME280;18103;52.246;8.052;2022-09-30T14:26:26;99579.22;;;16.77;55.42
31483;BME280;18103;52.246;8.052;2022-09-30T14:31:53;99577.72;;;16.81;55.76
31483;BME280;18103;52.246;8.052;2022-09-30T14:34:21;99572.47;;;16.50;56.38
31483;BME280;18103;52.246;8.052;2022-09-30T14:36:49;99568.41;;;16.41;57.62
31483;BME280;18103;52.246;8.052;2022-09-30T14:39:19;99566.00;;;16.33;56.47
31483;BME280;18103;52.246;8.052;2022-09-30T14:41:50;99569.44;;;16.40;57.44
31483;BME280;18103;52.246;8.052;2022-09-30T14:44:17;99562.22;;;16.40;56.87
31483;BME280;18103;52.246;8.052;2022-09-30T14:46:53;99564.28;;;16.38;57.21
31483;BME280;18103;52.246;8.052;2022-09-30T14:49:26;99552.69;;;16.19;57.48
31483;BME280;18103;52.246;8.052;2022-09-30T14:51:58;99554.31;;;16.20;56.69
31483;BME280;18103;52.246;8.052;2022-09-30T14:54:26;99559.72;;;16.20;56.69
31483;BME280;18103;52.246;8.052;2022-09-30T14:56:55;99559.59;;;16.34;56.84
31483;BME280;18103;52.246;8.052;2022-09-30T14:59:32;99552.84;;;16.25;57.44
31483;BME280;18103;52.246;8.052;2022-09-30T15:02:24;99551.38;;;16.04;58.36
31483;BME280;18103;52.246;8.052;2022-09-30T15:04:53;99550.28;;;16.11;57.61
31483;BME280;18103;52.246;8.052;2022-09-30T15:07:19;99547.19;;;15.90;57.52
31483;BME280;18103;52.246;8.052;2022-09-30T15:09:46;99545.31;;;15.90;57.40
31483;BME280;18103;52.246;8.052;2022-09-30T15:12:18;99550.38;;;15.80;57.80
31483;BME280;18103;52.246;8.052;2022-09-30T15:14:49;99542.28;;;15.80;57.21
31483;BME280;18103;52.246;8.052;2022-09-30T15:17:19;99546.44;;;15.76;57.48
31483;BME280;18103;52.246;8.052;2022-09-30T15:19:45;99548.78;;;15.72;57.53
31483;BME280;18103;52.246;8.052;2022-09-30T15:22:12;99544.22;;;15.73;57.00
31483;BME280;18103;52.246;8.052;2022-09-30T15:24:39;99543.19;;;15.74;57.36
31483;BME280;18103;52.246;8.052;2022-09-30T15:27:06;99547.50;;;15.75;57.16
31483;BME280;18103;52.246;8.052;2022-09-30T15:29:36;99539.06;;;15.71;57.99
31483;BME280;18103;52.246;8.052;2022-09-30T15:32:10;99538.50;;;15.63;56.99
31483;BME280;18103;52.246;8.052;2022-09-30T15:34:38;99537.47;;;15.64;57.33
31483;BME280;18103;52.246;8.052;2022-09-30T15:37:04;99538.56;;;15.56;57.93
31483;BME280;18103;52.246;8.052;2022-09-30T15:39:39;99544.38;;;15.46;57.86
31483;BME280;18103;52.246;8.052;2022-09-30T15:45:41;99543.38;;;15.41;58.46
31483;BME280;18103;52.246;8.052;2022-09-30T15:50:49;99535.09;;;15.42;58.52
31483;BME280;18103;52.246;8.052;2022-09-30T15:55:49;99544.56;;;15.20;59.15
31483;BME280;18103;52.246;8.052;2022-09-30T15:58:36;99546.88;;;15.10;58.58
31483;BME280;18103;52.246;8.052;2022-09-30T16:01:19;99541.69;;;15.15;58.84
31483;BME280;18103;52.246;8.052;2022-09-30T16:03:53;99541.31;;;15.05;58.63
31483;BME280;18103;52.246;8.052;2022-09-30T16:06:28;99546.94;;;15.03;59.52
31483;BME280;18103;52.246;8.052;2022-09-30T16:08:58;99549.66;;;14.90;59.46
31483;BME280;18103;52.246;8.052;2022-09-30T16:11:35;99550.47;;;14.91;58.91
31483;BME280;18103;52.246;8.052;2022-09-30T16:14:03;99545.94;;;14.91;59.35
31483;BME280;18103;52.246;8.052;2022-09-30T16:16:31;99537.06;;;14.91;59.40
31483;BME280;18103;52.246;8.052;2022-09-30T16:18:58;99542.63;;;14.89;59.33
31483;BME280;18103;52.246;8.052;2022-09-30T16:23:55;99538.13;;;14.83;59.74